KHVS/HVS METAR and TAF weather

Enter ICAO airport designator
Station Type Date Time Source
KHVS METAR 2019/05/19 06:15 UTC NOAA

KHVS 190615Z AUTO 20003KT 21/21 A3003 RMK AO2 PWINO


Station Type Date Time Source
KHVS Decoded METAR 2019/05/19 06:15 UTC NOAA

Station name not available
May 19, 2019 - 02:15 AM EDT / 2019.05.19 0615 UTC
Wind: from the SSW (200 degrees) at 3 MPH (3 KT):0
Temperature: 69 F (21 C)
Dew Point: 69 F (21 C)
Relative Humidity: 100%
Pressure (altimeter): 30.03 in. Hg (1016 hPa)
ob: KHVS 190615Z AUTO 20003KT 21/21 A3003 RMK AO2 PWINO
cycle: 6

Station Type Date Time Source
KHVS TAF UTC NOAA

Error!

Example: see airport list